createdAt,value
2022-09-12T00:01:24.168Z,101726.16
2022-09-12T00:03:55.737Z,101715.97
2022-09-12T00:06:31.101Z,101726.44
2022-09-12T00:09:00.082Z,101721.41
2022-09-12T00:11:26.770Z,101714.53
2022-09-12T00:14:00.043Z,101711.44
2022-09-12T00:16:28.436Z,101709.81
2022-09-12T00:18:55.046Z,101707.25
2022-09-12T00:21:22.593Z,101711.69
2022-09-12T00:23:50.449Z,101703.69
2022-09-12T00:26:18.155Z,101705.09
2022-09-12T00:28:45.381Z,101699.25
2022-09-12T00:31:14.899Z,101702.28
2022-09-12T00:33:42.148Z,101687.88
2022-09-12T00:36:12.012Z,101689.78
2022-09-12T00:38:41.859Z,101706.31
2022-09-12T00:41:23.407Z,101698.88
2022-09-12T00:43:53.027Z,101696.94
2022-09-12T00:46:41.819Z,101687.53
2022-09-12T00:49:15.879Z,101694.13
2022-09-12T00:51:54.320Z,101688.84
2022-09-12T00:54:32.496Z,101684.97
2022-09-12T00:57:03.877Z,101679.13
2022-09-12T00:59:40.401Z,101678.06
2022-09-12T01:02:07.763Z,101671.38
2022-09-12T01:04:36.907Z,101674.59
2022-09-12T01:07:05.261Z,101667.69
2022-09-12T01:09:32.039Z,101665.72
2022-09-12T01:12:01.155Z,101662.91
2022-09-12T01:14:29.321Z,101677.31
2022-09-12T01:16:55.932Z,101666.75
2022-09-12T01:20:17.692Z,101667.66
2022-09-12T01:23:05.832Z,101658.81
2022-09-12T01:25:34.854Z,101662.31
2022-09-12T01:28:22.718Z,101663.16
2022-09-12T01:31:26.812Z,101660.44
2022-09-12T01:34:08.917Z,101654.81
2022-09-12T01:37:07.639Z,101647.72
2022-09-12T01:40:16.787Z,101647.63
2022-09-12T01:43:02.151Z,101647.53
2022-09-12T01:45:53.202Z,101642.50
2022-09-12T01:48:24.495Z,101643.09
2022-09-12T01:50:57.055Z,101640.81
2022-09-12T01:53:33.511Z,101649.34
2022-09-12T01:56:15.976Z,101640.53
2022-09-12T01:59:01.144Z,101633.88
2022-09-12T02:01:33.914Z,101633.56
2022-09-12T02:04:08.933Z,101628.09
2022-09-12T02:06:43.652Z,101629.66
2022-09-12T02:09:22.601Z,101625.56
2022-09-12T02:11:52.385Z,101626.66
2022-09-12T02:14:24.283Z,101621.59
2022-09-12T02:17:00.175Z,101618.00
2022-09-12T02:19:47.254Z,101608.13
2022-09-12T02:22:17.558Z,101610.22
2022-09-12T02:24:47.789Z,101610.13
2022-09-12T02:27:18.104Z,101615.09
2022-09-12T02:29:44.965Z,101609.22
2022-09-12T02:32:29.716Z,101608.44
2022-09-12T02:35:11.194Z,101615.06
2022-09-12T02:37:54.434Z,101625.53
2022-09-12T02:40:21.024Z,101614.44
2022-09-12T02:42:47.520Z,101616.34
2022-09-12T02:45:14.094Z,101614.41
2022-09-12T02:47:47.393Z,101612.44
2022-09-12T02:50:14.212Z,101609.19
2022-09-12T02:52:41.191Z,101604.25
2022-09-12T02:55:07.987Z,101605.59
2022-09-12T02:57:34.452Z,101606.16
2022-09-12T03:00:02.039Z,101598.09
2022-09-12T03:02:57.306Z,101605.31
2022-09-12T03:05:32.964Z,101595.03
2022-09-12T03:08:21.993Z,101592.34
2022-09-12T03:11:23.748Z,101585.72
2022-09-12T03:14:29.643Z,101582.13
2022-09-12T03:16:56.047Z,101587.72
2022-09-12T03:19:44.435Z,101592.59
2022-09-12T03:22:10.870Z,101591.00
2022-09-12T03:24:58.286Z,101581.59
2022-09-12T03:27:34.144Z,101588.75
2022-09-12T03:30:01.655Z,101579.69
2022-09-12T03:32:48.277Z,101585.22
2022-09-12T03:35:22.257Z,101579.06
2022-09-12T03:37:50.673Z,101578.75
2022-09-12T03:40:17.248Z,101574.34
2022-09-12T03:42:43.788Z,101568.88
2022-09-12T03:45:10.583Z,101564.16
2022-09-12T03:47:37.396Z,101579.78
2022-09-12T03:50:04.649Z,101571.47
2022-09-12T03:52:31.109Z,101581.13
2022-09-12T03:54:57.600Z,101575.06
2022-09-12T03:57:24.104Z,101564.28
2022-09-12T03:59:50.673Z,101569.50
2022-09-12T04:02:17.560Z,101569.81
2022-09-12T04:04:44.420Z,101563.13
2022-09-12T04:07:11.527Z,101568.13
2022-09-12T04:09:38.059Z,101560.69
2022-09-12T04:12:05.205Z,101559.00
2022-09-12T04:14:31.672Z,101557.31
2022-09-12T04:16:58.349Z,101551.56
2022-09-12T04:19:26.304Z,101558.47
2022-09-12T04:21:52.960Z,101563.66
2022-09-12T04:24:19.467Z,101553.19
2022-09-12T04:26:45.910Z,101551.56
2022-09-12T04:29:12.907Z,101552.88
2022-09-12T04:31:39.424Z,101543.78
2022-09-12T04:34:05.891Z,101542.63
2022-09-12T04:36:34.188Z,101547.34
2022-09-12T04:39:02.019Z,101537.25
2022-09-12T04:41:31.407Z,101542.84
2022-09-12T04:44:04.069Z,101539.53
2022-09-12T04:46:33.413Z,101539.00
2022-09-12T04:49:00.237Z,101539.47
2022-09-12T04:51:29.538Z,101540.03
2022-09-12T04:53:59.785Z,101536.38
2022-09-12T04:56:27.001Z,101535.63
2022-09-12T04:58:53.563Z,101533.13
2022-09-12T05:01:22.325Z,101544.66
2022-09-12T05:03:50.471Z,101540.53
2022-09-12T05:06:29.037Z,101539.22
2022-09-12T05:08:57.296Z,101546.03
2022-09-12T05:11:36.747Z,101538.56
2022-09-12T05:14:13.180Z,101539.16
2022-09-12T05:16:41.169Z,101548.75
2022-09-12T05:19:07.749Z,101544.56
2022-09-12T05:21:34.225Z,101554.25
2022-09-12T05:24:01.035Z,101546.25
2022-09-12T05:26:27.758Z,101546.78
2022-09-12T05:28:54.733Z,101552.19
2022-09-12T05:31:23.793Z,101550.03
2022-09-12T05:33:51.949Z,101554.44
2022-09-12T05:36:23.957Z,101545.63
2022-09-12T05:38:50.952Z,101549.66
2022-09-12T05:41:24.202Z,101548.59
2022-09-12T05:43:53.493Z,101554.44
2022-09-12T05:46:21.803Z,101552.78
2022-09-12T05:48:55.152Z,101561.53
2022-09-12T05:51:27.968Z,101555.47
2022-09-12T05:53:59.784Z,101554.94
2022-09-12T05:56:27.297Z,101557.69
2022-09-12T05:59:02.627Z,101553.59
2022-09-12T06:01:30.970Z,101563.81
2022-09-12T06:04:00.805Z,101570.38
2022-09-12T06:06:28.972Z,101575.31
2022-09-12T06:09:01.106Z,101572.31
2022-09-12T06:11:31.052Z,101563.81
2022-09-12T06:13:58.320Z,101565.44
2022-09-12T06:16:27.477Z,101559.94
2022-09-12T06:18:56.344Z,101564.63
2022-09-12T06:21:24.389Z,101564.06
2022-09-12T06:23:51.081Z,101563.81
2022-09-12T06:26:21.374Z,101551.88
2022-09-12T06:28:47.988Z,101551.63
2022-09-12T06:31:18.421Z,101558.47
2022-09-12T06:33:50.016Z,101554.88
2022-09-12T06:36:21.579Z,101559.31
2022-09-12T06:38:48.800Z,101557.38
2022-09-12T06:41:15.921Z,101562.56
2022-09-12T06:43:42.832Z,101557.91
2022-09-12T06:46:10.541Z,101548.22
2022-09-12T06:48:41.547Z,101559.50
2022-09-12T06:51:16.840Z,101560.34
2022-09-12T06:53:44.687Z,101550.47
2022-09-12T06:56:13.632Z,101562.81
2022-09-12T06:58:40.883Z,101552.78
2022-09-12T07:01:10.508Z,101556.00
2022-09-12T07:03:38.178Z,101547.22
2022-09-12T07:06:09.651Z,101555.59
2022-09-12T07:08:37.258Z,101549.00
2022-09-12T07:11:14.844Z,101549.38
2022-09-12T07:13:43.097Z,101544.19
2022-09-12T07:16:10.650Z,101541.44
2022-09-12T07:18:38.793Z,101545.34
2022-09-12T07:21:07.702Z,101536.72
2022-09-12T07:23:34.188Z,101540.16
2022-09-12T07:26:01.110Z,101539.94
2022-09-12T07:28:30.499Z,101534.44
2022-09-12T07:30:57.319Z,101526.78
2022-09-12T07:33:27.125Z,101536.44
2022-09-12T07:35:56.458Z,101535.59
2022-09-12T07:38:23.177Z,101540.09
2022-09-12T07:40:50.123Z,101534.38
2022-09-12T07:43:16.592Z,101538.56
2022-09-12T07:45:43.366Z,101548.00
2022-09-12T07:48:09.904Z,101540.88
2022-09-12T07:50:36.691Z,101543.66
2022-09-12T07:53:04.060Z,101548.41
2022-09-12T07:55:30.797Z,101554.84
2022-09-12T07:57:57.250Z,101549.03
2022-09-12T08:00:23.713Z,101548.31
2022-09-12T08:02:53.956Z,101552.47
2022-09-12T08:05:20.826Z,101547.84
2022-09-12T08:07:47.550Z,101549.53
2022-09-12T08:10:14.053Z,101550.69
2022-09-12T08:12:40.515Z,101546.59
2022-09-12T08:15:07.272Z,101547.53
2022-09-12T08:17:33.740Z,101551.69
2022-09-12T08:20:00.214Z,101554.75
2022-09-12T08:22:26.672Z,101558.63
2022-09-12T08:24:53.573Z,101552.03
2022-09-12T08:27:20.027Z,101553.19
2022-09-12T08:29:46.480Z,101551.28
2022-09-12T08:32:12.977Z,101552.97
2022-09-12T08:34:39.487Z,101556.56
2022-09-12T08:37:06.070Z,101558.00
2022-09-12T08:39:33.185Z,101564.09
2022-09-12T08:42:04.823Z,101561.66
2022-09-12T08:44:50.106Z,101560.34
2022-09-12T08:47:45.000Z,101559.56
2022-09-12T08:50:11.684Z,101553.88
2022-09-12T08:52:51.834Z,101555.81
2022-09-12T08:55:27.080Z,101564.13
2022-09-12T08:57:54.340Z,101562.50
2022-09-12T09:00:21.584Z,101556.75
2022-09-12T09:02:48.153Z,101553.41
2022-09-12T09:05:37.747Z,101557.03
2022-09-12T09:08:22.635Z,101562.06
2022-09-12T09:11:20.855Z,101550.44
2022-09-12T09:14:17.150Z,101545.47
2022-09-12T09:16:46.628Z,101547.75
2022-09-12T09:19:24.055Z,101544.44
2022-09-12T09:21:58.782Z,101536.13
2022-09-12T09:24:33.874Z,101538.59
2022-09-12T09:27:39.399Z,101536.41
2022-09-12T09:30:15.276Z,101535.28
2022-09-12T09:32:42.837Z,101523.94
2022-09-12T09:35:52.358Z,101527.53
2022-09-12T09:38:24.604Z,101533.31
2022-09-12T09:41:07.087Z,101537.16
2022-09-12T09:43:33.634Z,101532.44
2022-09-12T09:46:00.453Z,101523.88
2022-09-12T09:48:31.443Z,101524.94
2022-09-12T09:51:01.775Z,101519.66
2022-09-12T09:53:47.663Z,101511.53
2022-09-12T09:56:33.272Z,101507.31
2022-09-12T09:59:19.988Z,101507.03
2022-09-12T10:01:51.666Z,101497.56
2022-09-12T10:04:24.735Z,101500.91
2022-09-12T10:06:53.131Z,101493.34
2022-09-12T10:09:24.537Z,101496.94
2022-09-12T10:11:51.803Z,101488.81
2022-09-12T10:14:27.262Z,101485.44
2022-09-12T10:16:53.787Z,101481.72
2022-09-12T10:19:34.091Z,101486.72
2022-09-12T10:22:02.167Z,101487.91
2022-09-12T10:24:34.162Z,101485.97
2022-09-12T10:27:12.616Z,101482.25
2022-09-12T10:29:45.890Z,101472.47
2022-09-12T10:32:15.937Z,101467.44
2022-09-12T10:34:44.988Z,101461.25
2022-09-12T10:37:23.245Z,101455.63
2022-09-12T10:39:57.009Z,101454.91
2022-09-12T10:42:46.466Z,101451.22
2022-09-12T10:45:30.694Z,101443.22
2022-09-12T10:48:06.880Z,101439.88
2022-09-12T10:50:41.513Z,101439.22
2022-09-12T10:53:22.961Z,101434.09
2022-09-12T10:56:10.571Z,101437.00
2022-09-12T10:58:55.779Z,101431.50
2022-09-12T11:01:25.117Z,101426.75
2022-09-12T11:04:17.865Z,101423.59
2022-09-12T11:07:10.658Z,101431.66
2022-09-12T11:09:49.287Z,101425.25
2022-09-12T11:12:41.116Z,101418.19
2022-09-12T11:15:25.859Z,101421.53
2022-09-12T11:18:03.928Z,101414.66
2022-09-12T11:20:48.320Z,101405.00
2022-09-12T11:23:17.686Z,101408.44
2022-09-12T11:25:59.924Z,101408.56
2022-09-12T11:28:57.458Z,101414.88
2022-09-12T11:31:42.640Z,101407.13
2022-09-12T11:34:10.872Z,101413.75
2022-09-12T11:37:18.223Z,101412.94
2022-09-12T11:39:52.281Z,101400.53
2022-09-12T11:42:34.913Z,101404.34
2022-09-12T11:45:10.233Z,101415.91
2022-09-12T11:47:37.307Z,101407.66
2022-09-12T11:50:15.905Z,101409.72
2022-09-12T11:52:42.379Z,101412.69
2022-09-12T11:55:17.359Z,101420.34
2022-09-12T11:57:50.981Z,101404.53
2022-09-12T12:00:20.574Z,101397.59
2022-09-12T12:03:00.813Z,101395.66
2022-09-12T12:05:52.096Z,101397.22
2022-09-12T12:08:20.618Z,101396.97
2022-09-12T12:10:56.774Z,101387.53
2022-09-12T12:13:29.595Z,101392.47
2022-09-12T12:16:00.701Z,101399.38
2022-09-12T12:18:30.195Z,101394.25
2022-09-12T12:21:16.119Z,101387.84
2022-09-12T12:24:07.679Z,101389.19
2022-09-12T12:26:40.439Z,101391.53
2022-09-12T12:29:16.621Z,101381.88
2022-09-12T12:31:58.472Z,101384.41
2022-09-12T12:34:36.477Z,101387.59
2022-09-12T12:37:21.448Z,101381.19
2022-09-12T12:39:48.065Z,101374.31
2022-09-12T12:42:36.088Z,101374.69
2022-09-12T12:45:08.530Z,101377.63
2022-09-12T12:47:37.870Z,101368.38
2022-09-12T12:50:06.304Z,101363.31
2022-09-12T12:52:41.777Z,101352.59
2022-09-12T12:55:20.465Z,101359.06
2022-09-12T12:57:49.898Z,101358.25
2022-09-12T13:00:28.066Z,101349.53
2022-09-12T13:03:06.589Z,101346.25
2022-09-12T13:05:46.140Z,101341.81
2022-09-12T13:08:18.611Z,101343.31
2022-09-12T13:10:54.483Z,101331.66
2022-09-12T13:13:28.909Z,101340.22
2022-09-12T13:15:55.483Z,101331.31
2022-09-12T13:18:29.312Z,101331.09
2022-09-12T13:21:01.210Z,101322.91
2022-09-12T13:23:30.375Z,101330.31
2022-09-12T13:25:59.085Z,101323.06
2022-09-12T13:28:26.672Z,101315.94
2022-09-12T13:31:00.988Z,101319.91
2022-09-12T13:33:35.894Z,101311.66
2022-09-12T13:36:20.504Z,101318.22
2022-09-12T13:39:03.255Z,101312.78
2022-09-12T13:41:44.844Z,101312.78
2022-09-12T13:44:16.521Z,101309.59
2022-09-12T13:46:43.064Z,101298.78
2022-09-12T13:49:34.208Z,101300.88
2022-09-12T13:52:03.692Z,101294.31
2022-09-12T13:54:31.592Z,101292.00
2022-09-12T13:56:59.657Z,101278.31
2022-09-12T13:59:26.243Z,101281.59
2022-09-12T14:01:52.826Z,101275.72
2022-09-12T14:04:37.772Z,101274.88
2022-09-12T14:07:14.023Z,101282.88
2022-09-12T14:09:47.004Z,101284.31
2022-09-12T14:12:29.417Z,101281.94
2022-09-12T14:14:56.945Z,101263.19
2022-09-12T14:17:36.051Z,101271.13
2022-09-12T14:20:06.924Z,101272.25
2022-09-12T14:22:35.721Z,101264.31
2022-09-12T14:25:02.773Z,101261.94
2022-09-12T14:27:43.025Z,101261.63
2022-09-12T14:30:25.149Z,101261.75
2022-09-12T14:33:09.714Z,101257.41
2022-09-12T14:35:49.274Z,101241.84
2022-09-12T14:38:15.700Z,101241.28
2022-09-12T14:40:52.175Z,101239.97
2022-09-12T14:43:26.284Z,101231.16
2022-09-12T14:46:02.009Z,101232.66
2022-09-12T14:48:32.907Z,101231.44
2022-09-12T14:50:59.780Z,101218.69
2022-09-12T14:53:35.612Z,101224.41
2022-09-12T14:56:05.085Z,101227.72
2022-09-12T14:58:31.785Z,101222.09
2022-09-12T15:01:07.191Z,101225.38
2022-09-12T15:03:49.443Z,101232.22
2022-09-12T15:06:23.560Z,101229.66
2022-09-12T15:08:52.232Z,101226.19
2022-09-12T15:11:18.782Z,101220.22
2022-09-12T15:13:45.343Z,101223.88
2022-09-12T15:16:12.094Z,101222.69
2022-09-12T15:18:38.742Z,101218.41
2022-09-12T15:21:10.662Z,101218.03
2022-09-12T15:23:44.270Z,101221.53
2022-09-12T15:26:13.980Z,101208.16
2022-09-12T15:28:40.617Z,101214.44
2022-09-12T15:31:30.718Z,101206.44
2022-09-12T15:33:59.953Z,101203.09
2022-09-12T15:36:26.547Z,101199.09
2022-09-12T15:38:53.144Z,101202.47
2022-09-12T15:41:22.816Z,101195.56
2022-09-12T15:43:49.578Z,101196.09
2022-09-12T15:46:17.825Z,101202.25
2022-09-12T15:48:44.608Z,101199.31
2022-09-12T15:51:15.446Z,101194.88
2022-09-12T15:53:43.147Z,101197.97
2022-09-12T15:56:09.857Z,101182.38
2022-09-12T15:58:36.377Z,101197.34
2022-09-12T16:01:05.091Z,101198.28
2022-09-12T16:03:32.289Z,101186.94
2022-09-12T16:06:01.528Z,101186.22
2022-09-12T16:08:31.271Z,101184.03
2022-09-12T16:11:02.689Z,101186.56
2022-09-12T16:13:29.229Z,101185.06
2022-09-12T16:15:59.789Z,101183.31
2022-09-12T16:18:27.383Z,101175.59
2022-09-12T16:20:54.774Z,101174.28
2022-09-12T16:23:22.064Z,101177.22
2022-09-12T16:25:59.091Z,101170.53
2022-09-12T16:28:25.982Z,101166.94
2022-09-12T16:31:01.079Z,101169.38
2022-09-12T16:33:28.696Z,101161.75
2022-09-12T16:36:03.930Z,101168.09
2022-09-12T16:38:31.139Z,101156.47
2022-09-12T16:41:01.818Z,101167.72
2022-09-12T16:43:29.177Z,101162.09
2022-09-12T16:46:13.626Z,101160.19
2022-09-12T16:48:49.380Z,101150.38
2022-09-12T16:51:20.176Z,101147.56
2022-09-12T16:53:46.883Z,101148.56
2022-09-12T16:56:13.416Z,101151.91
2022-09-12T16:58:42.166Z,101147.53
2022-09-12T17:01:11.809Z,101137.03
2022-09-12T17:03:38.767Z,101138.81
2022-09-12T17:06:10.843Z,101129.31
2022-09-12T17:08:42.762Z,101130.81
2022-09-12T17:11:20.882Z,101129.88
2022-09-12T17:14:04.547Z,101117.56
2022-09-12T17:16:33.603Z,101111.56
2022-09-12T17:19:00.095Z,101099.13
2022-09-12T17:21:26.609Z,101095.31
2022-09-12T17:23:53.149Z,101098.00
2022-09-12T17:26:20.653Z,101096.69
2022-09-12T17:28:47.233Z,101088.19
2022-09-12T17:31:14.788Z,101088.50
2022-09-12T17:33:42.020Z,101082.75
2022-09-12T17:36:15.169Z,101086.31
2022-09-12T17:38:43.397Z,101083.72
2022-09-12T17:41:17.400Z,101082.88
2022-09-12T17:43:50.701Z,101089.19
2022-09-12T17:46:18.268Z,101095.53
2022-09-12T17:48:44.940Z,101091.66
2022-09-12T17:51:14.074Z,101093.81
2022-09-12T17:53:41.438Z,101075.91
2022-09-12T17:56:08.581Z,101087.94
2022-09-12T17:58:35.764Z,101092.44
2022-09-12T18:01:26.094Z,101102.53
2022-09-12T18:03:56.928Z,101111.47
2022-09-12T18:06:24.011Z,101097.59
2022-09-12T18:08:50.600Z,101101.81
2022-09-12T18:11:17.522Z,101105.09
2022-09-12T18:13:44.153Z,101096.50
2022-09-12T18:16:12.655Z,101095.41
2022-09-12T18:18:39.386Z,101102.47
2022-09-12T18:21:07.535Z,101090.31
2022-09-12T18:23:34.490Z,101107.78
2022-09-12T18:26:09.044Z,101100.94
2022-09-12T18:28:37.572Z,101111.84
2022-09-12T18:31:04.879Z,101113.69
2022-09-12T18:33:31.977Z,101121.09
2022-09-12T18:36:03.943Z,101121.13
2022-09-12T18:38:31.059Z,101130.00
2022-09-12T18:41:09.621Z,101136.59
2022-09-12T18:43:36.391Z,101125.25
2022-09-12T18:46:07.503Z,101125.78
2022-09-12T18:48:34.317Z,101124.94
2022-09-12T18:51:31.835Z,101130.22
2022-09-12T18:54:00.717Z,101129.41
2022-09-12T18:56:32.443Z,101122.69
2022-09-12T18:59:00.021Z,101116.94
2022-09-12T19:01:29.156Z,101118.91
2022-09-12T19:03:56.171Z,101107.38
2022-09-12T19:06:30.398Z,101113.50
2022-09-12T19:08:58.631Z,101110.53
2022-09-12T19:11:27.325Z,101102.97
2022-09-12T19:13:55.294Z,101098.19
2022-09-12T19:16:24.306Z,101093.28
2022-09-12T19:18:52.269Z,101074.53
2022-09-12T19:21:24.477Z,101073.88
2022-09-12T19:23:52.354Z,101074.38
2022-09-12T19:26:20.661Z,101081.09
2022-09-12T19:28:47.417Z,101079.28
2022-09-12T19:31:18.849Z,101086.50
2022-09-12T19:33:45.728Z,101079.28
2022-09-12T19:36:34.043Z,101086.97
2022-09-12T19:39:00.560Z,101082.91
2022-09-12T19:41:27.038Z,101074.53
2022-09-12T19:43:55.421Z,101071.88
2022-09-12T19:46:24.554Z,101075.16
2022-09-12T19:48:52.388Z,101075.44
2022-09-12T19:51:20.431Z,101075.94
2022-09-12T19:53:48.411Z,101078.13
2022-09-12T19:56:14.958Z,101084.13
2022-09-12T19:58:46.720Z,101086.09
2022-09-12T20:01:31.526Z,101077.91
2022-09-12T20:03:58.595Z,101071.66
2022-09-12T20:06:26.018Z,101070.31
2022-09-12T20:08:52.567Z,101069.19
2022-09-12T20:11:20.734Z,101065.69
2022-09-12T20:13:47.631Z,101060.28
2022-09-12T20:16:22.154Z,101061.44
2022-09-12T20:18:57.319Z,101062.41
2022-09-12T20:21:31.460Z,101059.09
2022-09-12T20:24:05.730Z,101052.69
2022-09-12T20:26:32.221Z,101060.53
2022-09-12T20:28:59.619Z,101050.03
2022-09-12T20:31:26.302Z,101043.81
2022-09-12T20:33:52.785Z,101045.59
2022-09-12T20:36:20.895Z,101042.44
2022-09-12T20:38:49.636Z,101044.59
2022-09-12T20:41:16.475Z,101040.38
2022-09-12T20:43:43.018Z,101043.81
2022-09-12T20:46:10.992Z,101047.38
2022-09-12T20:48:38.436Z,101042.31
2022-09-12T20:51:05.347Z,101039.00
2022-09-12T20:53:35.090Z,101038.34
2022-09-12T20:56:02.731Z,101041.78
2022-09-12T20:58:29.183Z,101034.19
2022-09-12T21:00:55.703Z,101041.03
2022-09-12T21:03:22.463Z,101054.84
2022-09-12T21:05:48.935Z,101044.09
2022-09-12T21:08:15.396Z,101042.63
2022-09-12T21:10:45.183Z,101033.31
2022-09-12T21:13:12.505Z,101038.72
2022-09-12T21:15:40.138Z,101032.81
2022-09-12T21:18:06.886Z,101027.38
2022-09-12T21:20:33.542Z,101032.94
2022-09-12T21:23:00.225Z,101041.94
2022-09-12T21:25:28.861Z,101053.22
2022-09-12T21:27:55.332Z,101062.91
2022-09-12T21:30:22.283Z,101060.44
2022-09-12T21:32:48.821Z,101064.38
2022-09-12T21:35:15.362Z,101058.53
2022-09-12T21:37:41.810Z,101063.72
2022-09-12T21:40:08.486Z,101066.38
2022-09-12T21:42:35.040Z,101061.47
2022-09-12T21:45:01.584Z,101054.03
2022-09-12T21:47:28.088Z,101060.56
2022-09-12T21:49:55.253Z,101057.97
2022-09-12T21:52:21.936Z,101058.41
2022-09-12T21:54:48.408Z,101063.66
2022-09-12T21:57:14.855Z,101057.84
2022-09-12T21:59:41.391Z,101062.44
2022-09-12T22:02:08.633Z,101067.19
2022-09-12T22:04:35.145Z,101073.09
2022-09-12T22:07:02.040Z,101082.28
2022-09-12T22:09:28.512Z,101071.78
2022-09-12T22:11:55.539Z,101075.59
2022-09-12T22:14:21.980Z,101070.84
2022-09-12T22:16:49.431Z,101072.34
2022-09-12T22:19:15.947Z,101084.19
2022-09-12T22:22:02.373Z,101072.31
2022-09-12T22:24:29.018Z,101070.25
2022-09-12T22:26:57.122Z,101066.75
2022-09-12T22:29:23.571Z,101072.31
2022-09-12T22:31:50.293Z,101059.53
2022-09-12T22:34:16.760Z,101054.78
2022-09-12T22:36:43.323Z,101055.19
2022-09-12T22:39:09.849Z,101055.84
2022-09-12T22:41:36.387Z,101050.44
2022-09-12T22:44:03.160Z,101045.53
2022-09-12T22:46:30.393Z,101042.25
2022-09-12T22:48:56.911Z,101038.56
2022-09-12T22:51:23.843Z,101038.44
2022-09-12T22:53:51.361Z,101035.59
2022-09-12T22:56:18.097Z,101037.34
2022-09-12T22:58:44.638Z,101030.66
2022-09-12T23:01:11.586Z,101025.56
2022-09-12T23:03:38.682Z,101021.84
2022-09-12T23:06:05.988Z,101029.50
2022-09-12T23:08:34.929Z,101034.78
2022-09-12T23:11:11.726Z,101030.88
2022-09-12T23:13:38.904Z,101022.31
2022-09-12T23:16:07.794Z,101024.63
2022-09-12T23:18:36.125Z,101012.66
2022-09-12T23:21:13.180Z,101019.03
2022-09-12T23:23:39.916Z,101005.34
2022-09-12T23:26:11.172Z,101003.50
2022-09-12T23:28:38.572Z,100992.78
2022-09-12T23:31:05.621Z,100997.00
2022-09-12T23:33:32.512Z,100994.22
2022-09-12T23:36:04.899Z,101000.72
2022-09-12T23:38:32.400Z,100995.16
2022-09-12T23:40:59.017Z,100986.22
2022-09-12T23:43:26.233Z,100990.84
2022-09-12T23:45:52.861Z,100984.28
2022-09-12T23:48:19.836Z,100988.19
2022-09-12T23:50:47.360Z,100992.50
2022-09-12T23:53:15.648Z,100999.22
2022-09-12T23:55:42.704Z,100994.06
2022-09-12T23:58:09.504Z,100984.09
